Time;durP1;ratioP1;P1;durP2;ratioP2;P2;SDS_P1;SDS_P2;PMS_P1;PMS_P2;Temp;Humidity;BMP_temperature;BMP_pressure;BME280_temperature;BME280_humidity;BME280_pressure;Samples;Min_cycle;Max_cycle;Signal;HPM_P1;HPM_P2
2023/08/21 00:00:05;;;;;;;14.68;9.68;;;;;;;31.18;34.39;96713.66;5083571;28;20023;-32
2023/08/21 00:02:30;;;;;;;12.70;9.93;;;;;;;31.07;34.35;96707.09;5083553;28;20577;-30
2023/08/21 00:04:56;;;;;;;18.40;10.00;;;;;;;31.02;34.68;96702.44;5074811;28;20024;-30
2023/08/21 00:07:22;;;;;;;12.65;9.30;;;;;;;31.04;34.59;96705.41;5083671;28;20133;-30
2023/08/21 00:09:47;;;;;;;10.02;9.13;;;;;;;30.92;35.07;96701.47;5083422;28;20028;-30
2023/08/21 00:12:12;;;;;;;10.07;9.18;;;;;;;31.00;35.00;96704.28;5076094;28;20421;-30
2023/08/21 00:14:38;;;;;;;10.98;9.70;;;;;;;31.13;34.56;96697.81;5084890;28;20024;-31
2023/08/21 00:17:03;;;;;;;15.77;9.80;;;;;;;30.86;35.45;96703.69;5081246;28;20533;-31
2023/08/21 00:19:29;;;;;;;10.00;9.00;;;;;;;31.22;35.10;96700.03;5083323;28;20024;-31
2023/08/21 00:21:55;;;;;;;14.20;9.32;;;;;;;31.08;35.25;96705.78;5079116;28;20477;-31
2023/08/21 00:24:20;;;;;;;9.45;8.55;;;;;;;31.00;34.79;96709.91;5079882;28;20069;-30
2023/08/21 00:26:46;;;;;;;9.40;8.50;;;;;;;31.04;34.88;96704.66;5081630;28;20044;-30
2023/08/21 00:29:11;;;;;;;12.20;9.15;;;;;;;31.11;34.80;96709.56;5082912;28;20028;-30
2023/08/21 00:31:37;;;;;;;11.50;8.75;;;;;;;30.94;35.53;96712.84;5082465;28;20427;-30
2023/08/21 00:34:02;;;;;;;10.48;8.48;;;;;;;31.04;34.80;96702.59;5082716;28;20024;-30
2023/08/21 00:36:28;;;;;;;10.50;9.40;;;;;;;31.10;35.05;96701.72;5081685;28;20110;-30
2023/08/21 00:38:53;;;;;;;9.88;8.98;;;;;;;31.04;34.92;96697.00;5083998;28;20040;-30
2023/08/21 00:41:18;;;;;;;10.68;8.80;;;;;;;31.02;35.71;96705.22;5079816;28;20047;-30
2023/08/21 00:43:44;;;;;;;9.45;8.55;;;;;;;31.00;35.49;96696.63;5078816;28;20024;-30
2023/08/21 00:46:10;;;;;;;12.02;8.60;;;;;;;30.96;35.54;96703.91;5077479;28;20044;-30
2023/08/21 00:48:37;;;;;;;9.13;8.23;;;;;;;30.84;35.87;96703.50;5079905;28;20024;-30
2023/08/21 00:51:03;;;;;;;10.10;8.20;;;;;;;30.91;36.13;96704.84;5082867;28;20031;-31
2023/08/21 00:53:29;;;;;;;10.27;8.82;;;;;;;30.92;36.69;96715.47;5082203;28;20020;-30
2023/08/21 00:55:55;;;;;;;11.05;8.32;;;;;;;30.92;36.32;96701.47;5089577;28;20035;-30
2023/08/21 00:58:21;;;;;;;9.13;8.23;;;;;;;31.10;36.19;96702.47;5075660;28;20027;-30
2023/08/21 01:00:49;;;;;;;9.60;8.55;;;;;;;31.14;35.97;96704.91;5080705;28;20103;-30
2023/08/21 01:03:15;;;;;;;9.50;8.50;;;;;;;30.96;36.63;96701.84;5084583;28;20024;-30
2023/08/21 01:05:41;;;;;;;9.60;8.60;;;;;;;30.91;36.84;96699.97;5081773;28;20108;-31
2023/08/21 01:08:15;;;;;;;9.73;8.25;;;;;;;31.02;36.74;96696.84;5082073;28;20354;-30
2023/08/21 01:11:02;;;;;;;8.73;7.93;;;;;;;30.98;36.93;96699.25;5085086;28;20027;-30
2023/08/21 01:13:46;;;;;;;8.88;7.65;;;;;;;31.03;37.06;96698.31;5077033;28;20025;-30
2023/08/21 01:16:14;;;;;;;8.73;7.80;;;;;;;31.10;36.47;96691.25;5079003;28;20039;-30
2023/08/21 01:18:40;;;;;;;8.82;7.88;;;;;;;31.03;36.86;96698.31;5082345;28;20393;-30
2023/08/21 01:21:06;;;;;;;10.75;8.30;;;;;;;30.98;36.87;96698.50;5081980;28;20119;-31
2023/08/21 01:23:36;;;;;;;11.35;8.20;;;;;;;30.85;37.26;96698.66;5081773;28;20107;-30
2023/08/21 01:26:03;;;;;;;10.05;8.68;;;;;;;30.90;37.02;96692.16;5081197;28;20158;-30
2023/08/21 01:28:30;;;;;;;8.77;8.05;;;;;;;30.88;37.15;96694.75;5082005;28;20027;-30
2023/08/21 01:31:23;;;;;;;9.82;8.68;;;;;;;30.85;37.46;96693.81;5077213;28;20027;-30
2023/08/21 01:33:54;;;;;;;9.45;8.02;;;;;;;30.80;37.21;96696.75;5080945;28;20036;-30
2023/08/21 01:36:20;;;;;;;9.73;7.90;;;;;;;30.85;36.81;96690.25;5087144;28;20048;-31
2023/08/21 01:38:47;;;;;;;8.77;7.93;;;;;;;30.77;37.61;96698.66;5081591;28;20037;-30
2023/08/21 01:41:12;;;;;;;9.30;8.50;;;;;;;30.73;37.44;96687.06;5077374;28;20437;-30
2023/08/21 01:43:37;;;;;;;8.52;7.72;;;;;;;30.87;36.84;96699.59;5084335;28;20106;-30
2023/08/21 01:46:03;;;;;;;8.65;7.85;;;;;;;30.82;37.06;96705.34;5076322;28;20020;-30
2023/08/21 01:48:29;;;;;;;11.80;8.25;;;;;;;30.74;37.36;96696.94;5084949;28;20060;-30
2023/08/21 01:50:54;;;;;;;8.43;7.68;;;;;;;30.99;37.00;96700.75;5076420;28;20020;-31
2023/08/21 01:53:20;;;;;;;8.95;8.07;;;;;;;30.87;37.14;96696.81;5081060;28;20022;-30
2023/08/21 01:55:45;;;;;;;8.93;8.10;;;;;;;30.93;37.28;96700.16;5087359;28;20016;-30
2023/08/21 01:58:11;;;;;;;10.93;7.95;;;;;;;30.87;36.90;96710.06;5083269;28;20020;-30
2023/08/21 02:00:36;;;;;;;9.65;8.45;;;;;;;30.69;37.45;96700.66;5084081;28;20111;-30
2023/08/21 02:03:01;;;;;;;9.00;8.05;;;;;;;30.82;37.54;96694.91;5084825;28;20085;-30
2023/08/21 02:05:27;;;;;;;8.90;8.00;;;;;;;30.62;37.42;96696.53;5083345;28;20032;-30
2023/08/21 02:07:52;;;;;;;8.88;8.07;;;;;;;30.75;37.65;96697.69;5083985;28;20020;-30
2023/08/21 02:10:18;;;;;;;10.07;8.38;;;;;;;30.65;38.03;96700.28;5082755;28;20028;-30
2023/08/21 02:12:43;;;;;;;9.43;8.13;;;;;;;30.77;37.68;96701.44;5076505;28;20540;-30
2023/08/21 02:15:10;;;;;;;17.63;8.60;;;;;;;30.84;37.83;96695.09;5077436;28;20021;-30
2023/08/21 02:17:35;;;;;;;8.88;8.07;;;;;;;30.73;37.73;96684.25;5088763;28;20401;-30
2023/08/21 02:20:01;;;;;;;8.90;8.00;;;;;;;30.65;37.75;96677.91;5080853;28;20017;-30
2023/08/21 02:22:27;;;;;;;8.55;7.63;;;;;;;30.69;37.53;96686.66;5073559;28;20485;-30
2023/08/21 02:24:53;;;;;;;9.18;8.07;;;;;;;30.77;37.56;96681.84;5083331;28;20553;-30
2023/08/21 02:27:18;;;;;;;9.13;7.95;;;;;;;30.63;38.17;96683.31;5078171;28;20071;-30
2023/08/21 02:29:44;;;;;;;8.98;8.05;;;;;;;30.58;38.33;96670.22;5080817;28;20028;-30
2023/08/21 02:32:09;;;;;;;10.65;7.65;;;;;;;30.42;38.15;96683.38;5073656;28;20074;-31
2023/08/21 02:34:35;;;;;;;8.80;7.88;;;;;;;30.53;38.65;96674.69;5080768;28;20016;-30
2023/08/21 02:37:01;;;;;;;8.85;7.82;;;;;;;30.45;38.51;96679.47;5080810;28;20050;-30
2023/08/21 02:39:27;;;;;;;8.98;8.15;;;;;;;30.73;38.35;96675.09;5080362;28;20040;-30
2023/08/21 02:41:53;;;;;;;9.05;8.05;;;;;;;30.58;38.62;96675.81;5080293;28;20031;-30
2023/08/21 02:44:18;;;;;;;9.48;7.95;;;;;;;30.53;38.33;96676.72;5080083;28;20025;-30
2023/08/21 02:46:43;;;;;;;9.07;8.18;;;;;;;30.65;38.44;96669.50;5080016;28;20024;-30
2023/08/21 02:49:09;;;;;;;8.32;7.53;;;;;;;30.76;38.48;96671.94;5080358;28;20029;-31
2023/08/21 02:51:34;;;;;;;8.65;7.85;;;;;;;30.80;37.82;96674.38;5078315;28;20452;-30
2023/08/21 02:54:00;;;;;;;8.73;7.88;;;;;;;30.55;38.53;96677.66;5082815;28;20028;-31
2023/08/21 02:56:25;;;;;;;8.30;7.55;;;;;;;30.58;38.16;96676.56;5083506;28;20465;-30
2023/08/21 02:58:50;;;;;;;10.07;8.00;;;;;;;30.67;38.64;96670.41;5077302;28;20024;-30
2023/08/21 03:01:17;;;;;;;14.63;7.65;;;;;;;30.60;38.64;96668.34;5080727;28;20033;-30
2023/08/21 03:03:42;;;;;;;9.27;7.47;;;;;;;30.42;38.52;96663.78;5087113;28;20019;-30
2023/08/21 03:06:07;;;;;;;9.10;7.35;;;;;;;30.68;38.24;96663.53;5080024;28;20021;-30
2023/08/21 03:08:33;;;;;;;8.35;6.88;;;;;;;30.64;38.92;96668.75;5083064;28;20021;-30
2023/08/21 03:10:58;;;;;;;10.68;7.55;;;;;;;30.60;38.25;96664.81;5077934;28;20032;-30
2023/08/21 03:13:24;;;;;;;8.65;7.85;;;;;;;30.42;38.98;96657.44;5080020;28;20488;-30
2023/08/21 03:15:50;;;;;;;8.15;7.40;;;;;;;30.66;38.36;96665.41;5080020;28;20424;-30
2023/08/21 03:18:15;;;;;;;8.98;8.07;;;;;;;30.60;38.23;96659.22;5079926;28;20028;-30
2023/08/21 03:20:45;;;;;;;11.30;8.18;;;;;;;30.62;38.79;96667.81;5075333;28;20024;-30
2023/08/21 03:23:11;;;;;;;10.38;7.65;;;;;;;30.54;38.60;96669.84;5085269;28;20150;-30
2023/08/21 03:25:36;;;;;;;8.63;7.60;;;;;;;30.62;38.83;96671.34;5080087;28;20119;-30
2023/08/21 03:28:02;;;;;;;10.30;8.35;;;;;;;30.54;38.51;96675.44;5086813;28;20040;-30
2023/08/21 03:30:28;;;;;;;8.18;7.47;;;;;;;30.66;38.69;96674.53;5079714;28;20029;-30
2023/08/21 03:32:53;;;;;;;8.77;8.02;;;;;;;30.52;38.51;96672.41;5087581;28;20028;-30
2023/08/21 03:35:18;;;;;;;8.60;7.45;;;;;;;30.51;38.54;96680.06;5080019;28;20363;-30
2023/08/21 03:37:44;;;;;;;8.77;7.50;;;;;;;30.68;37.95;96674.72;5080104;28;20013;-29
2023/08/21 03:40:10;;;;;;;8.23;7.43;;;;;;;30.70;38.14;96676.97;5072860;28;20074;-30
2023/08/21 03:42:35;;;;;;;9.45;8.07;;;;;;;30.72;38.38;96665.97;5086061;28;20016;-30
2023/08/21 03:45:03;;;;;;;11.05;8.38;;;;;;;30.66;38.31;96671.72;5080663;28;20028;-30
2023/08/21 03:47:29;;;;;;;9.57;7.70;;;;;;;30.55;38.56;96672.06;5079708;28;20074;-30
2023/08/21 03:49:54;;;;;;;11.52;8.15;;;;;;;30.58;38.84;96675.81;5079570;28;20028;-30
2023/08/21 03:52:19;;;;;;;12.57;8.05;;;;;;;30.49;38.78;96667.94;5080353;28;20077;-30
2023/08/21 03:54:45;;;;;;;8.70;7.80;;;;;;;30.66;38.58;96662.59;5078330;28;20057;-30
2023/08/21 03:57:10;;;;;;;8.60;7.45;;;;;;;30.42;39.36;96674.22;5081489;28;20362;-30
2023/08/21 03:59:36;;;;;;;8.85;7.95;;;;;;;30.60;38.64;96670.41;5076707;28;20114;-30
2023/08/21 04:02:02;;;;;;;9.50;8.07;;;;;;;30.45;38.74;96667.53;5087105;28;20095;-31
2023/08/21 04:04:27;;;;;;;8.15;7.45;;;;;;;30.64;38.63;96668.00;5083336;28;20025;-30
2023/08/21 04:06:53;;;;;;;8.43;7.50;;;;;;;30.35;39.56;96673.66;5081140;28;20032;-30
2023/08/21 04:09:18;;;;;;;8.50;7.72;;;;;;;30.50;39.06;96675.78;5078427;28;20031;-30
2023/08/21 04:11:43;;;;;;;9.65;7.53;;;;;;;30.57;38.78;96685.50;5083611;28;20016;-30
2023/08/21 04:14:09;;;;;;;8.30;7.60;;;;;;;30.32;39.29;96685.94;5083080;28;20035;-30
2023/08/21 04:16:34;;;;;;;8.88;8.07;;;;;;;30.60;39.26;96690.75;5083172;28;20028;-30
2023/08/21 04:19:00;;;;;;;10.13;8.15;;;;;;;30.45;39.49;96695.50;5083172;28;20036;-30
2023/08/21 04:21:25;;;;;;;8.50;7.40;;;;;;;30.59;38.83;96691.31;5082992;28;20020;-31
2023/08/21 04:23:51;;;;;;;9.35;7.75;;;;;;;30.58;39.30;96698.94;5083239;28;20074;-30
2023/08/21 04:26:16;;;;;;;9.13;8.20;;;;;;;30.53;39.51;96699.88;5081860;28;20020;-30
2023/08/21 04:28:42;;;;;;;8.80;7.70;;;;;;;30.49;39.20;96701.50;5078187;28;20416;-30
2023/08/21 04:31:07;;;;;;;8.20;7.25;;;;;;;30.53;39.28;96699.09;5086028;28;20020;-30
2023/08/21 04:33:34;;;;;;;9.20;7.55;;;;;;;30.45;39.25;96704.66;5085988;28;20012;-31
2023/08/21 04:36:00;;;;;;;9.93;7.32;;;;;;;30.48;39.26;96711.94;5077892;28;20020;-30
2023/08/21 04:38:25;;;;;;;8.77;7.57;;;;;;;30.20;40.09;96712.00;5080883;28;20109;-30
2023/08/21 04:40:51;;;;;;;8.80;8.00;;;;;;;30.47;39.64;96718.84;5090575;28;20016;-30
2023/08/21 04:43:17;;;;;;;11.02;7.82;;;;;;;30.41;39.35;96712.69;5078853;28;20020;-30
2023/08/21 04:45:50;;;;;;;9.82;7.75;;;;;;;30.52;39.69;96711.59;5086303;28;20024;-30
2023/08/21 04:48:15;;;;;;;9.80;7.70;;;;;;;30.46;39.75;96717.34;5085815;28;20027;-31
2023/08/21 04:50:41;;;;;;;12.63;7.20;;;;;;;30.50;39.66;96717.00;5080002;28;20103;-30
2023/08/21 04:53:06;;;;;;;8.55;7.70;;;;;;;30.42;39.67;96713.41;5082725;28;20038;-31
2023/08/21 04:55:32;;;;;;;10.40;7.28;;;;;;;30.36;39.88;96724.78;5075524;28;20104;-30
2023/08/21 04:57:57;;;;;;;9.93;8.20;;;;;;;30.54;39.67;96720.22;5082777;28;20478;-30
2023/08/21 05:00:23;;;;;;;9.82;6.95;;;;;;;30.50;39.37;96725.41;5082572;28;20052;-30
2023/08/21 05:02:48;;;;;;;8.82;7.68;;;;;;;30.59;39.43;96722.84;5082699;28;20109;-30
2023/08/21 05:05:14;;;;;;;8.07;7.28;;;;;;;30.43;39.35;96731.69;5082231;28;20023;-30
2023/08/21 05:07:39;;;;;;;11.18;7.53;;;;;;;30.50;39.31;96739.38;5082269;28;20024;-30
2023/08/21 05:10:05;;;;;;;9.10;7.53;;;;;;;30.39;39.91;96737.66;5082332;28;20024;-30
2023/08/21 05:12:31;;;;;;;10.18;7.32;;;;;;;30.45;39.97;96732.63;5075884;28;20036;-30
2023/08/21 05:14:56;;;;;;;9.00;8.10;;;;;;;30.52;39.21;96742.38;5085542;28;20483;-30
2023/08/21 05:17:22;;;;;;;9.00;7.95;;;;;;;30.51;39.78;96738.84;5077414;28;20110;-30
2023/08/21 05:19:47;;;;;;;8.82;7.82;;;;;;;30.59;39.70;96742.44;5084621;28;20024;-30
2023/08/21 05:22:13;;;;;;;8.45;7.65;;;;;;;30.53;39.42;96750.25;5079380;28;20032;-30
2023/08/21 05:24:38;;;;;;;8.77;7.70;;;;;;;30.36;39.79;96759.09;5083161;28;20103;-31
2023/08/21 05:27:04;;;;;;;9.68;7.35;;;;;;;30.57;39.32;96747.84;5081371;28;20024;-30
2023/08/21 05:29:30;;;;;;;8.25;7.28;;;;;;;30.27;39.85;96756.06;5081779;28;20025;-30
2023/08/21 05:31:55;;;;;;;8.48;6.40;;;;;;;30.40;40.19;96749.59;5083880;28;20466;-30
2023/08/21 05:34:21;;;;;;;8.38;7.60;;;;;;;30.39;39.97;96754.47;5084575;28;20102;-30
2023/08/21 05:36:46;;;;;;;8.15;7.35;;;;;;;30.50;39.93;96759.72;5083918;28;20069;-30
2023/08/21 05:39:12;;;;;;;13.02;11.75;;;;;;;30.43;40.05;96759.69;5084657;28;20036;-30
2023/08/21 05:41:37;;;;;;;9.30;8.40;;;;;;;30.43;39.71;96763.22;5084917;28;20373;-30
2023/08/21 05:44:03;;;;;;;8.30;7.60;;;;;;;30.45;39.99;96769.03;5076551;28;20023;-30
2023/08/21 05:46:29;;;;;;;8.30;7.38;;;;;;;30.45;40.07;96774.63;5087436;28;20028;-30
2023/08/21 05:48:54;;;;;;;14.48;7.80;;;;;;;30.43;39.73;96770.88;5081559;28;20031;-30
2023/08/21 05:51:20;;;;;;;9.43;7.38;;;;;;;30.41;40.14;96773.50;5081444;28;20024;-30
2023/08/21 05:53:45;;;;;;;9.27;7.45;;;;;;;30.42;39.80;96774.97;5081677;28;20112;-30
2023/08/21 05:56:10;;;;;;;7.95;7.15;;;;;;;30.51;40.00;96777.28;5088776;28;20110;-30
2023/08/21 05:58:36;;;;;;;10.27;7.40;;;;;;;30.44;39.77;96784.31;5073856;28;20012;-31
2023/08/21 06:01:01;;;;;;;8.25;7.10;;;;;;;30.49;39.73;96786.22;5081557;28;20048;-30
2023/08/21 06:03:27;;;;;;;8.00;7.07;;;;;;;30.60;39.78;96790.78;5081004;28;20056;-30
2023/08/21 06:05:52;;;;;;;7.68;6.90;;;;;;;30.63;39.41;96789.66;5086713;28;20024;-30
2023/08/21 06:08:18;;;;;;;8.55;7.07;;;;;;;30.47;39.80;96788.81;5082897;28;20078;-30
2023/08/21 06:10:44;;;;;;;9.35;7.13;;;;;;;30.69;39.97;96788.19;5076885;28;20013;-30
2023/08/21 06:13:09;;;;;;;7.72;7.03;;;;;;;30.59;39.76;96789.28;5078056;28;20521;-30
2023/08/21 06:15:34;;;;;;;8.13;7.32;;;;;;;30.68;39.83;96785.94;5081560;28;20069;-30
2023/08/21 06:18:00;;;;;;;8.18;7.38;;;;;;;30.65;39.63;96782.22;5078645;28;20076;-30
2023/08/21 06:20:26;;;;;;;8.88;7.57;;;;;;;30.62;39.75;96782.56;5083513;28;20016;-30
2023/08/21 06:22:51;;;;;;;8.73;7.90;;;;;;;30.85;39.22;96779.84;5075923;28;20031;-30
2023/08/21 06:25:19;;;;;;;8.27;7.38;;;;;;;30.74;39.71;96783.00;5083352;28;20051;-30
2023/08/21 06:27:44;;;;;;;8.98;7.65;;;;;;;30.69;39.36;96784.66;5075397;28;20042;-30
2023/08/21 06:30:10;;;;;;;9.38;7.38;;;;;;;30.75;39.81;96778.91;5079684;28;20085;-30
2023/08/21 06:32:36;;;;;;;8.73;7.53;;;;;;;30.68;40.05;96786.69;5072492;28;20028;-30
2023/08/21 06:35:01;;;;;;;8.55;7.53;;;;;;;30.73;39.49;96781.50;5080266;28;20021;-30
2023/08/21 06:37:26;;;;;;;8.48;7.55;;;;;;;30.42;40.07;96780.56;5086395;28;20130;-30
2023/08/21 06:39:52;;;;;;;10.07;7.60;;;;;;;30.79;39.72;96787.66;5073041;28;20110;-30
2023/08/21 06:42:18;;;;;;;10.13;8.02;;;;;;;30.51;40.32;96791.25;5080439;28;20028;-30
2023/08/21 06:44:43;;;;;;;10.57;7.35;;;;;;;30.77;39.85;96788.25;5080169;28;20029;-30
2023/08/21 06:47:08;;;;;;;10.80;7.47;;;;;;;30.86;39.71;96784.16;5082963;28;20087;-30
2023/08/21 06:49:34;;;;;;;8.55;7.65;;;;;;;30.82;40.03;96792.91;5083996;28;20448;-30
2023/08/21 06:51:59;;;;;;;8.85;7.57;;;;;;;30.81;39.93;96794.22;5082620;28;20500;-30
2023/08/21 06:54:25;;;;;;;9.35;6.95;;;;;;;30.78;39.58;96795.34;5076013;28;20030;-31
2023/08/21 06:56:50;;;;;;;8.35;7.45;;;;;;;30.65;40.20;96793.41;5084263;28;20047;-30
2023/08/21 06:59:16;;;;;;;9.85;7.32;;;;;;;30.83;39.63;96791.63;5081357;28;20024;-30
2023/08/21 07:01:41;;;;;;;12.95;6.93;;;;;;;30.89;39.48;96797.81;5079327;28;20008;-30
2023/08/21 07:04:07;;;;;;;8.20;7.47;;;;;;;30.79;39.81;96784.88;5072872;28;20021;-30
2023/08/21 07:06:32;;;;;;;8.48;7.57;;;;;;;30.94;40.25;96780.06;5080596;28;20063;-30
2023/08/21 07:08:58;;;;;;;9.75;7.65;;;;;;;31.01;39.65;96798.97;5086065;28;20020;-30
2023/08/21 07:11:23;;;;;;;8.85;7.95;;;;;;;30.86;40.38;96793.31;5081828;28;20077;-30
2023/08/21 07:13:49;;;;;;;7.85;7.07;;;;;;;30.82;40.49;96792.91;5080021;28;20397;-31
2023/08/21 07:16:14;;;;;;;10.90;7.43;;;;;;;30.96;39.79;96796.31;5080188;28;20032;-30
2023/08/21 07:18:40;;;;;;;8.65;7.75;;;;;;;30.83;40.18;96796.47;5082549;28;20032;-30
2023/08/21 07:21:05;;;;;;;8.77;7.88;;;;;;;30.91;40.09;96802.84;5078680;28;20107;-30
2023/08/21 07:23:32;;;;;;;8.10;7.32;;;;;;;30.90;40.30;96799.31;5080293;28;20020;-31
2023/08/21 07:25:58;;;;;;;10.15;8.00;;;;;;;30.94;39.92;96796.13;5079584;28;20382;-30
2023/08/21 07:28:24;;;;;;;9.90;7.78;;;;;;;30.86;39.99;96803.75;5079389;28;20032;-30
2023/08/21 07:30:59;;;;;;;8.82;8.02;;;;;;;30.80;40.68;96803.91;5080650;28;20399;-30
2023/08/21 07:33:25;;;;;;;8.43;7.57;;;;;;;31.15;39.40;96796.81;5078835;28;20446;-31
2023/08/21 07:35:59;;;;;;;9.23;7.57;;;;;;;31.13;39.76;96795.84;5077375;28;20082;-30
2023/08/21 07:38:25;;;;;;;10.27;7.22;;;;;;;31.20;39.49;96800.72;5087381;28;20123;-30
2023/08/21 07:40:50;;;;;;;9.10;8.20;;;;;;;31.15;39.58;96804.44;5085910;28;20024;-30
2023/08/21 07:43:16;;;;;;;8.65;7.75;;;;;;;31.19;39.87;96802.78;5083767;28;20071;-30
2023/08/21 07:45:41;;;;;;;8.48;7.68;;;;;;;31.29;39.34;96794.56;5090718;28;20469;-30
2023/08/21 07:48:06;;;;;;;10.20;7.57;;;;;;;31.31;39.18;96801.09;5078379;28;20023;-30
2023/08/21 07:50:32;;;;;;;10.15;8.00;;;;;;;31.15;39.49;96802.41;5082465;28;20077;-30
2023/08/21 07:52:57;;;;;;;7.63;6.93;;;;;;;31.24;39.16;96803.91;5083690;28;20470;-30
2023/08/21 07:55:23;;;;;;;8.25;7.30;;;;;;;31.20;39.30;96809.13;5086845;28;20496;-30
2023/08/21 07:57:49;;;;;;;7.75;7.00;;;;;;;31.18;39.39;96825.72;5086974;28;20031;-30
2023/08/21 08:00:14;;;;;;;8.93;7.68;;;;;;;31.27;39.78;96825.22;5085692;28;20019;-30
2023/08/21 08:02:40;;;;;;;8.25;7.53;;;;;;;31.38;39.54;96822.06;5087060;28;20016;-30
2023/08/21 08:05:06;;;;;;;9.60;7.07;;;;;;;31.32;39.44;96815.88;5086565;28;20026;-30
2023/08/21 08:07:31;;;;;;;10.82;8.10;;;;;;;31.36;39.62;96817.00;5078944;28;20020;-30
2023/08/21 08:09:56;;;;;;;9.27;6.90;;;;;;;31.43;39.54;96813.47;5089050;28;20024;-30
2023/08/21 08:12:22;;;;;;;8.10;7.30;;;;;;;31.28;39.69;96824.63;5083290;28;20016;-30
2023/08/21 08:14:47;;;;;;;9.00;7.95;;;;;;;31.48;39.25;96814.59;5090183;28;20481;-30
2023/08/21 08:17:13;;;;;;;8.20;7.40;;;;;;;31.34;39.64;96819.63;5083652;28;20522;-30
2023/08/21 08:19:38;;;;;;;8.25;7.45;;;;;;;31.43;39.11;96823.94;5083180;28;20077;-31
2023/08/21 08:22:04;;;;;;;8.50;7.53;;;;;;;31.51;39.26;96819.09;5082848;28;20108;-30
2023/08/21 08:24:29;;;;;;;8.45;7.65;;;;;;;31.47;38.73;96818.72;5083166;28;20027;-30
2023/08/21 08:26:55;;;;;;;9.63;7.70;;;;;;;31.51;38.82;96812.75;5076104;28;20024;-30
2023/08/21 08:29:21;;;;;;;8.55;7.78;;;;;;;31.44;39.47;96814.22;5083159;28;20032;-30
2023/08/21 08:31:46;;;;;;;9.38;7.53;;;;;;;31.46;39.21;96822.06;5083001;28;20444;-30
2023/08/21 08:34:11;;;;;;;8.38;7.47;;;;;;;31.47;39.07;96821.50;5081728;28;20028;-30
2023/08/21 08:36:37;;;;;;;8.25;7.38;;;;;;;31.52;38.85;96819.84;5075183;28;20020;-30
2023/08/21 08:39:02;;;;;;;8.82;7.72;;;;;;;31.51;39.58;96819.09;5083083;28;20485;-30
2023/08/21 08:41:57;;;;;;;8.65;7.85;;;;;;;31.67;39.26;96814.25;5080906;28;20043;-30
2023/08/21 08:44:26;;;;;;;8.18;7.38;;;;;;;31.56;39.23;96820.97;5085298;28;20123;-31
2023/08/21 08:46:52;;;;;;;8.55;7.63;;;;;;;31.52;39.28;96815.00;5084167;28;20016;-30
2023/08/21 08:49:18;;;;;;;8.60;7.80;;;;;;;31.54;38.91;96811.59;5082218;28;20466;-30
2023/08/21 08:51:44;;;;;;;9.20;7.45;;;;;;;31.58;39.21;96812.00;5081662;28;20023;-30
2023/08/21 08:54:12;;;;;;;8.27;7.47;;;;;;;31.46;39.64;96814.41;5077872;28;20024;-31
2023/08/21 08:56:37;;;;;;;9.48;7.60;;;;;;;31.60;38.74;96820.59;5086170;28;20110;-32
2023/08/21 08:59:06;;;;;;;8.68;7.78;;;;;;;31.53;39.63;96813.66;5076794;28;20032;-32
2023/08/21 09:01:31;;;;;;;10.55;7.50;;;;;;;31.54;39.09;96815.16;5078156;28;20094;-30
2023/08/21 09:03:56;;;;;;;7.70;7.00;;;;;;;31.58;38.49;96812.75;5085537;28;20036;-30
2023/08/21 09:06:22;;;;;;;8.90;8.05;;;;;;;31.57;39.05;96816.09;5077040;28;20024;-30
2023/08/21 09:08:57;;;;;;;11.07;7.93;;;;;;;31.56;38.84;96820.22;5081649;28;20024;-31
2023/08/21 09:11:23;;;;;;;10.35;7.85;;;;;;;31.57;38.91;96816.84;5080907;28;20081;-30
2023/08/21 09:13:51;;;;;;;9.43;8.52;;;;;;;31.61;38.94;96817.25;5086108;28;20024;-30
2023/08/21 09:16:20;;;;;;;8.43;7.53;;;;;;;31.66;38.90;96813.50;5078430;28;20473;-30
2023/08/21 09:18:51;;;;;;;9.45;7.50;;;;;;;31.61;39.29;96808.81;5085146;28;20099;-30
2023/08/21 09:21:18;;;;;;;8.35;7.55;;;;;;;31.66;38.77;96812.75;5085630;28;20020;-31
2023/08/21 09:23:44;;;;;;;8.65;7.70;;;;;;;31.67;39.34;96809.41;5082458;28;20481;-30
2023/08/21 09:26:09;;;;;;;11.77;7.70;;;;;;;31.65;38.95;96817.63;5079868;28;20028;-30
2023/08/21 09:28:35;;;;;;;9.00;7.50;;;;;;;31.60;38.92;96812.94;5077074;28;20070;-30
2023/08/21 09:31:02;;;;;;;8.18;7.45;;;;;;;31.70;38.24;96808.28;5085199;28;20466;-30
2023/08/21 09:33:27;;;;;;;11.10;8.05;;;;;;;31.67;38.55;96820.63;5084975;28;20465;-31
2023/08/21 09:35:54;;;;;;;9.25;7.93;;;;;;;31.68;38.00;96812.97;5076218;28;20081;-30
2023/08/21 09:38:20;;;;;;;8.50;7.63;;;;;;;31.84;38.50;96806.06;5080180;28;20064;-30
2023/08/21 09:40:54;;;;;;;8.90;7.75;;;;;;;31.74;38.42;96808.69;5089217;28;20048;-30
2023/08/21 09:43:21;;;;;;;8.80;7.90;;;;;;;31.79;38.04;96804.19;5081149;28;20100;-30
2023/08/21 09:45:48;;;;;;;8.90;7.93;;;;;;;31.78;38.37;96806.22;5081710;28;20012;-30
2023/08/21 09:48:14;;;;;;;8.88;7.95;;;;;;;31.76;38.21;96805.31;5081625;28;20027;-30
2023/08/21 09:50:40;;;;;;;8.32;7.53;;;;;;;31.80;38.05;96799.31;5087232;28;20473;-30
2023/08/21 09:53:10;;;;;;;9.57;7.00;;;;;;;31.95;37.65;96800.06;5082604;28;20020;-31
2023/08/21 09:55:35;;;;;;;10.90;7.47;;;;;;;31.76;37.69;96788.50;5074050;28;20016;-32
2023/08/21 09:58:02;;;;;;;10.15;7.55;;;;;;;31.88;37.77;96791.66;5081155;28;20073;-30
2023/08/21 10:00:39;;;;;;;8.57;7.53;;;;;;;31.87;37.59;96787.38;5081025;28;20025;-31
2023/08/21 10:03:09;;;;;;;8.48;7.60;;;;;;;31.89;37.94;96790.34;5080922;28;20039;-31
2023/08/21 10:05:36;;;;;;;10.32;7.70;;;;;;;31.97;37.55;96791.84;5081155;28;20017;-30
2023/08/21 10:08:04;;;;;;;9.25;8.38;;;;;;;31.92;36.80;96794.81;5080755;28;20028;-30
2023/08/21 10:10:33;;;;;;;8.60;7.88;;;;;;;31.92;37.22;96789.22;5080488;28;20036;-30
2023/08/21 10:13:00;;;;;;;10.23;8.23;;;;;;;31.94;36.70;96797.81;5078788;28;20042;-30
2023/08/21 10:15:29;;;;;;;10.00;8.57;;;;;;;31.90;36.89;96786.25;5083482;28;20086;-31
2023/08/21 10:17:55;;;;;;;9.25;8.02;;;;;;;31.90;36.80;96778.56;5084840;28;20099;-30
2023/08/21 10:20:25;;;;;;;10.02;8.57;;;;;;;31.96;36.75;96781.19;5084169;28;20150;-30
2023/08/21 10:23:01;;;;;;;9.68;8.38;;;;;;;31.93;36.31;96774.63;5084198;28;20040;-30
2023/08/21 10:25:27;;;;;;;10.30;8.57;;;;;;;31.92;36.21;96775.19;5084050;28;20034;-31
2023/08/21 10:27:58;;;;;;;8.73;7.68;;;;;;;31.99;35.79;96782.88;5083019;28;20029;-30
2023/08/21 10:30:25;;;;;;;9.15;7.95;;;;;;;32.05;35.83;96770.13;5078018;28;20024;-30
2023/08/21 10:32:53;;;;;;;8.93;7.57;;;;;;;32.00;36.16;96770.34;5080815;28;20040;-31
2023/08/21 10:35:22;;;;;;;9.50;7.53;;;;;;;31.99;36.01;96769.59;5080337;28;20050;-30
2023/08/21 10:38:06;;;;;;;9.48;7.50;;;;;;;32.00;35.95;96764.72;5080662;28;20028;-31
2023/08/21 10:40:32;;;;;;;8.18;7.38;;;;;;;32.02;36.01;96767.72;5077993;28;20024;-30
2023/08/21 10:42:59;;;;;;;10.05;8.23;;;;;;;32.07;35.95;96763.97;5080526;28;20029;-30
2023/08/21 10:45:24;;;;;;;8.38;7.20;;;;;;;32.12;35.62;96763.78;5085082;28;20467;-30
2023/08/21 10:47:50;;;;;;;11.68;7.57;;;;;;;32.09;34.72;96755.72;5083709;28;20073;-31
2023/08/21 10:50:16;;;;;;;7.88;7.18;;;;;;;32.21;34.89;96761.72;5075928;28;20028;-31
2023/08/21 10:52:45;;;;;;;7.35;6.65;;;;;;;32.16;34.29;96768.22;5083813;28;20028;-30
2023/08/21 10:55:12;;;;;;;9.02;6.85;;;;;;;32.15;33.97;96755.53;5082572;28;20469;-30
2023/08/21 10:57:38;;;;;;;7.63;6.68;;;;;;;32.21;33.61;96751.25;5083548;28;20047;-30
2023/08/21 11:00:12;;;;;;;7.70;6.97;;;;;;;32.28;33.95;96758.88;5082714;28;20039;-30
2023/08/21 11:02:40;;;;;;;9.13;7.10;;;;;;;32.18;33.87;96765.63;5080998;28;20020;-30
2023/08/21 11:05:07;;;;;;;7.70;7.00;;;;;;;32.21;34.45;96762.47;5080574;28;20024;-31
2023/08/21 11:07:43;;;;;;;7.78;6.97;;;;;;;32.26;34.68;96755.91;5080818;28;20493;-30
2023/08/21 11:10:13;;;;;;;8.20;7.40;;;;;;;32.22;33.93;96758.34;5081216;28;20385;-30
2023/08/21 11:12:47;;;;;;;8.20;7.50;;;;;;;32.25;34.03;96760.03;5077745;28;20017;-32
2023/08/21 11:15:12;;;;;;;7.95;7.15;;;;;;;32.25;33.74;96756.47;5084855;28;20023;-30
2023/08/21 11:17:38;;;;;;;7.30;6.68;;;;;;;32.19;33.86;96759.47;5079206;28;20024;-30
2023/08/21 11:20:04;;;;;;;9.35;8.07;;;;;;;32.28;33.70;96752.50;5087880;28;20024;-30
2023/08/21 11:22:31;;;;;;;8.07;6.90;;;;;;;32.33;33.22;96757.94;5086825;28;20025;-31
2023/08/21 11:24:57;;;;;;;7.32;6.72;;;;;;;32.29;33.20;96749.16;5084502;28;20021;-30
2023/08/21 11:27:24;;;;;;;10.20;7.85;;;;;;;32.28;33.26;96747.66;5083969;28;20366;-30